sensor_id;sensor_type;location;lat;lon;timestamp;P1;durP1;ratioP1;P2;durP2;ratioP2
53503;SDS011;39387;50.998;22.340;2023-05-29T00:01:21;1.85;;;1.23;;
53503;SDS011;39387;50.998;22.340;2023-05-29T00:03:50;1.15;;;0.88;;
53503;SDS011;39387;50.998;22.340;2023-05-29T00:06:19;1.23;;;1.05;;
53503;SDS011;39387;50.998;22.340;2023-05-29T00:08:48;1.42;;;0.80;;
53503;SDS011;39387;50.998;22.340;2023-05-29T00:11:16;2.05;;;1.08;;
53503;SDS011;39387;50.998;22.340;2023-05-29T00:13:46;1.38;;;1.00;;
53503;SDS011;39387;50.998;22.340;2023-05-29T00:16:14;1.45;;;0.82;;
53503;SDS011;39387;50.998;22.340;2023-05-29T00:18:45;1.90;;;1.13;;
53503;SDS011;39387;50.998;22.340;2023-05-29T00:21:14;1.60;;;1.40;;
53503;SDS011;39387;50.998;22.340;2023-05-29T00:23:43;2.45;;;1.00;;
53503;SDS011;39387;50.998;22.340;2023-05-29T00:26:11;1.33;;;1.00;;
53503;SDS011;39387;50.998;22.340;2023-05-29T00:28:40;1.30;;;1.13;;
53503;SDS011;39387;50.998;22.340;2023-05-29T00:31:09;1.20;;;1.02;;
53503;SDS011;39387;50.998;22.340;2023-05-29T00:33:48;1.98;;;1.25;;
53503;SDS011;39387;50.998;22.340;2023-05-29T00:36:25;1.40;;;1.05;;
53503;SDS011;39387;50.998;22.340;2023-05-29T00:39:03;1.70;;;1.17;;
53503;SDS011;39387;50.998;22.340;2023-05-29T00:41:40;1.70;;;1.05;;
53503;SDS011;39387;50.998;22.340;2023-05-29T00:44:19;1.38;;;0.98;;
53503;SDS011;39387;50.998;22.340;2023-05-29T00:46:52;1.30;;;0.95;;
53503;SDS011;39387;50.998;22.340;2023-05-29T00:49:24;1.88;;;1.13;;
53503;SDS011;39387;50.998;22.340;2023-05-29T00:51:53;1.77;;;1.10;;
53503;SDS011;39387;50.998;22.340;2023-05-29T00:54:23;1.75;;;1.20;;
53503;SDS011;39387;50.998;22.340;2023-05-29T00:56:54;1.45;;;1.00;;
53503;SDS011;39387;50.998;22.340;2023-05-29T00:59:23;1.85;;;1.10;;
53503;SDS011;39387;50.998;22.340;2023-05-29T01:01:52;2.63;;;1.13;;
53503;SDS011;39387;50.998;22.340;2023-05-29T01:04:20;1.88;;;1.20;;
53503;SDS011;39387;50.998;22.340;2023-05-29T01:06:51;1.30;;;1.10;;
53503;SDS011;39387;50.998;22.340;2023-05-29T01:09:20;1.23;;;1.00;;
53503;SDS011;39387;50.998;22.340;2023-05-29T01:11:50;1.45;;;1.23;;
53503;SDS011;39387;50.998;22.340;2023-05-29T01:14:24;1.60;;;1.10;;
53503;SDS011;39387;50.998;22.340;2023-05-29T01:16:58;2.05;;;1.25;;
53503;SDS011;39387;50.998;22.340;2023-05-29T01:19:37;2.00;;;1.00;;
53503;SDS011;39387;50.998;22.340;2023-05-29T01:22:18;1.38;;;1.10;;
53503;SDS011;39387;50.998;22.340;2023-05-29T01:24:55;1.73;;;1.10;;
53503;SDS011;39387;50.998;22.340;2023-05-29T01:27:27;1.38;;;1.10;;
53503;SDS011;39387;50.998;22.340;2023-05-29T01:32:25;1.70;;;1.00;;
53503;SDS011;39387;50.998;22.340;2023-05-29T01:34:53;1.25;;;1.13;;
53503;SDS011;39387;50.998;22.340;2023-05-29T01:37:21;1.95;;;1.20;;
53503;SDS011;39387;50.998;22.340;2023-05-29T01:39:49;1.20;;;1.00;;
53503;SDS011;39387;50.998;22.340;2023-05-29T01:42:18;1.52;;;1.10;;
53503;SDS011;39387;50.998;22.340;2023-05-29T01:44:47;1.73;;;1.10;;
53503;SDS011;39387;50.998;22.340;2023-05-29T01:47:16;2.13;;;1.20;;
53503;SDS011;39387;50.998;22.340;2023-05-29T01:49:45;1.13;;;0.95;;
53503;SDS011;39387;50.998;22.340;2023-05-29T01:52:14;1.17;;;1.08;;
53503;SDS011;39387;50.998;22.340;2023-05-29T01:54:43;1.50;;;0.93;;
53503;SDS011;39387;50.998;22.340;2023-05-29T01:57:11;1.10;;;0.90;;
53503;SDS011;39387;50.998;22.340;2023-05-29T01:59:40;1.08;;;0.93;;
53503;SDS011;39387;50.998;22.340;2023-05-29T02:02:09;1.27;;;0.90;;
53503;SDS011;39387;50.998;22.340;2023-05-29T02:04:39;1.48;;;0.80;;
53503;SDS011;39387;50.998;22.340;2023-05-29T02:07:07;1.35;;;1.13;;
53503;SDS011;39387;50.998;22.340;2023-05-29T02:09:35;1.63;;;1.00;;
53503;SDS011;39387;50.998;22.340;2023-05-29T02:12:04;1.40;;;0.90;;
53503;SDS011;39387;50.998;22.340;2023-05-29T02:14:33;0.90;;;0.70;;
53503;SDS011;39387;50.998;22.340;2023-05-29T02:17:02;1.17;;;1.00;;
53503;SDS011;39387;50.998;22.340;2023-05-29T02:19:33;1.13;;;0.82;;
53503;SDS011;39387;50.998;22.340;2023-05-29T02:22:01;1.23;;;1.10;;
53503;SDS011;39387;50.998;22.340;2023-05-29T02:24:29;1.50;;;0.75;;
53503;SDS011;39387;50.998;22.340;2023-05-29T02:26:57;1.40;;;0.82;;
53503;SDS011;39387;50.998;22.340;2023-05-29T02:29:27;1.20;;;1.10;;
53503;SDS011;39387;50.998;22.340;2023-05-29T02:31:54;1.50;;;0.95;;
53503;SDS011;39387;50.998;22.340;2023-05-29T02:34:23;0.90;;;0.70;;
53503;SDS011;39387;50.998;22.340;2023-05-29T02:36:52;1.10;;;0.98;;
53503;SDS011;39387;50.998;22.340;2023-05-29T02:39:21;1.13;;;1.00;;
53503;SDS011;39387;50.998;22.340;2023-05-29T02:41:49;1.67;;;1.13;;
53503;SDS011;39387;50.998;22.340;2023-05-29T02:44:18;1.10;;;0.95;;
53503;SDS011;39387;50.998;22.340;2023-05-29T02:46:46;1.33;;;0.90;;
53503;SDS011;39387;50.998;22.340;2023-05-29T02:49:14;1.58;;;1.05;;
53503;SDS011;39387;50.998;22.340;2023-05-29T02:51:42;1.58;;;0.80;;
53503;SDS011;39387;50.998;22.340;2023-05-29T02:54:12;1.38;;;0.95;;
53503;SDS011;39387;50.998;22.340;2023-05-29T02:56:40;1.35;;;0.90;;
53503;SDS011;39387;50.998;22.340;2023-05-29T02:59:09;1.40;;;0.85;;
53503;SDS011;39387;50.998;22.340;2023-05-29T03:01:37;2.08;;;1.08;;
53503;SDS011;39387;50.998;22.340;2023-05-29T03:04:05;1.08;;;0.93;;
53503;SDS011;39387;50.998;22.340;2023-05-29T03:06:33;1.27;;;1.00;;
53503;SDS011;39387;50.998;22.340;2023-05-29T03:09:02;1.70;;;1.17;;
53503;SDS011;39387;50.998;22.340;2023-05-29T03:11:34;2.53;;;1.30;;
53503;SDS011;39387;50.998;22.340;2023-05-29T03:14:04;2.47;;;1.17;;
53503;SDS011;39387;50.998;22.340;2023-05-29T03:16:32;1.48;;;1.10;;
53503;SDS011;39387;50.998;22.340;2023-05-29T03:19:02;1.60;;;1.10;;
53503;SDS011;39387;50.998;22.340;2023-05-29T03:21:30;1.20;;;1.10;;
53503;SDS011;39387;50.998;22.340;2023-05-29T03:23:58;1.55;;;1.08;;
53503;SDS011;39387;50.998;22.340;2023-05-29T03:26:27;1.95;;;1.20;;
53503;SDS011;39387;50.998;22.340;2023-05-29T03:28:57;1.80;;;1.20;;
53503;SDS011;39387;50.998;22.340;2023-05-29T03:31:25;1.40;;;1.08;;
53503;SDS011;39387;50.998;22.340;2023-05-29T03:33:53;1.50;;;0.95;;
53503;SDS011;39387;50.998;22.340;2023-05-29T03:36:21;1.83;;;1.05;;
53503;SDS011;39387;50.998;22.340;2023-05-29T03:38:49;1.50;;;1.20;;
53503;SDS011;39387;50.998;22.340;2023-05-29T03:41:17;1.90;;;1.10;;
53503;SDS011;39387;50.998;22.340;2023-05-29T03:43:45;1.73;;;1.10;;
53503;SDS011;39387;50.998;22.340;2023-05-29T03:46:15;1.10;;;0.88;;
53503;SDS011;39387;50.998;22.340;2023-05-29T03:48:43;1.50;;;1.15;;
53503;SDS011;39387;50.998;22.340;2023-05-29T03:51:11;1.10;;;1.00;;
53503;SDS011;39387;50.998;22.340;2023-05-29T03:53:40;1.67;;;1.00;;
53503;SDS011;39387;50.998;22.340;2023-05-29T03:56:07;1.08;;;0.93;;
53503;SDS011;39387;50.998;22.340;2023-05-29T03:58:36;1.42;;;1.00;;
53503;SDS011;39387;50.998;22.340;2023-05-29T04:01:04;1.92;;;1.20;;
53503;SDS011;39387;50.998;22.340;2023-05-29T04:03:34;1.83;;;0.98;;
53503;SDS011;39387;50.998;22.340;2023-05-29T04:06:04;1.27;;;1.10;;
53503;SDS011;39387;50.998;22.340;2023-05-29T04:08:33;2.42;;;1.13;;
53503;SDS011;39387;50.998;22.340;2023-05-29T04:11:01;1.30;;;1.20;;
53503;SDS011;39387;50.998;22.340;2023-05-29T04:13:30;1.92;;;1.40;;
53503;SDS011;39387;50.998;22.340;2023-05-29T04:16:02;1.58;;;1.20;;
53503;SDS011;39387;50.998;22.340;2023-05-29T04:18:30;2.20;;;1.30;;
53503;SDS011;39387;50.998;22.340;2023-05-29T04:21:00;1.90;;;1.42;;
53503;SDS011;39387;50.998;22.340;2023-05-29T04:23:30;1.40;;;1.30;;
53503;SDS011;39387;50.998;22.340;2023-05-29T04:26:03;2.28;;;1.40;;
53503;SDS011;39387;50.998;22.340;2023-05-29T04:28:31;2.05;;;1.20;;
53503;SDS011;39387;50.998;22.340;2023-05-29T04:31:03;1.17;;;1.05;;
53503;SDS011;39387;50.998;22.340;2023-05-29T04:33:31;1.20;;;1.10;;
53503;SDS011;39387;50.998;22.340;2023-05-29T04:36:04;1.75;;;1.10;;
53503;SDS011;39387;50.998;22.340;2023-05-29T04:38:34;1.77;;;1.10;;
53503;SDS011;39387;50.998;22.340;2023-05-29T04:41:02;1.13;;;0.95;;
53503;SDS011;39387;50.998;22.340;2023-05-29T04:43:30;1.13;;;1.00;;
53503;SDS011;39387;50.998;22.340;2023-05-29T04:45:57;2.88;;;1.33;;
53503;SDS011;39387;50.998;22.340;2023-05-29T04:48:25;1.95;;;1.20;;
53503;SDS011;39387;50.998;22.340;2023-05-29T04:50:53;2.25;;;1.15;;
53503;SDS011;39387;50.998;22.340;2023-05-29T04:53:22;2.17;;;1.30;;
53503;SDS011;39387;50.998;22.340;2023-05-29T04:55:50;2.05;;;1.30;;
53503;SDS011;39387;50.998;22.340;2023-05-29T04:58:18;1.30;;;1.20;;
53503;SDS011;39387;50.998;22.340;2023-05-29T05:00:47;1.42;;;1.20;;
53503;SDS011;39387;50.998;22.340;2023-05-29T05:03:15;1.50;;;1.30;;
53503;SDS011;39387;50.998;22.340;2023-05-29T05:05:42;1.80;;;1.30;;
53503;SDS011;39387;50.998;22.340;2023-05-29T05:08:10;2.05;;;1.35;;
53503;SDS011;39387;50.998;22.340;2023-05-29T05:10:39;1.80;;;1.17;;
53503;SDS011;39387;50.998;22.340;2023-05-29T05:13:07;1.40;;;1.27;;
53503;SDS011;39387;50.998;22.340;2023-05-29T05:15:36;1.15;;;0.98;;
53503;SDS011;39387;50.998;22.340;2023-05-29T05:18:04;1.55;;;1.20;;
53503;SDS011;39387;50.998;22.340;2023-05-29T05:20:32;2.15;;;1.13;;
53503;SDS011;39387;50.998;22.340;2023-05-29T05:23:01;2.50;;;1.40;;
53503;SDS011;39387;50.998;22.340;2023-05-29T05:25:28;1.60;;;1.00;;
53503;SDS011;39387;50.998;22.340;2023-05-29T05:27:57;1.25;;;1.10;;
53503;SDS011;39387;50.998;22.340;2023-05-29T05:30:25;1.40;;;1.10;;
53503;SDS011;39387;50.998;22.340;2023-05-29T05:32:53;1.33;;;0.93;;
53503;SDS011;39387;50.998;22.340;2023-05-29T05:35:21;1.38;;;0.90;;
53503;SDS011;39387;50.998;22.340;2023-05-29T05:37:49;1.95;;;1.20;;
53503;SDS011;39387;50.998;22.340;2023-05-29T05:40:16;1.50;;;1.33;;
53503;SDS011;39387;50.998;22.340;2023-05-29T05:42:44;1.60;;;1.13;;
53503;SDS011;39387;50.998;22.340;2023-05-29T05:45:13;1.58;;;1.20;;
53503;SDS011;39387;50.998;22.340;2023-05-29T05:47:41;1.23;;;1.02;;
53503;SDS011;39387;50.998;22.340;2023-05-29T05:50:08;1.20;;;1.10;;
53503;SDS011;39387;50.998;22.340;2023-05-29T05:52:37;1.95;;;1.20;;
53503;SDS011;39387;50.998;22.340;2023-05-29T05:55:05;1.85;;;1.30;;
53503;SDS011;39387;50.998;22.340;2023-05-29T06:00:02;1.30;;;1.17;;
53503;SDS011;39387;50.998;22.340;2023-05-29T06:02:35;3.65;;;1.10;;
53503;SDS011;39387;50.998;22.340;2023-05-29T06:05:02;3.30;;;1.00;;
53503;SDS011;39387;50.998;22.340;2023-05-29T06:10:00;1.83;;;1.20;;
53503;SDS011;39387;50.998;22.340;2023-05-29T06:12:29;1.58;;;0.98;;
53503;SDS011;39387;50.998;22.340;2023-05-29T06:14:57;1.15;;;1.02;;
53503;SDS011;39387;50.998;22.340;2023-05-29T06:17:25;1.05;;;0.90;;
53503;SDS011;39387;50.998;22.340;2023-05-29T06:19:54;1.27;;;0.98;;
53503;SDS011;39387;50.998;22.340;2023-05-29T06:22:22;1.30;;;1.10;;
53503;SDS011;39387;50.998;22.340;2023-05-29T06:24:50;1.10;;;1.00;;
53503;SDS011;39387;50.998;22.340;2023-05-29T06:27:19;1.63;;;1.10;;
53503;SDS011;39387;50.998;22.340;2023-05-29T06:29:49;1.77;;;0.90;;
53503;SDS011;39387;50.998;22.340;2023-05-29T06:32:18;1.50;;;1.13;;
53503;SDS011;39387;50.998;22.340;2023-05-29T06:34:47;1.10;;;1.00;;
53503;SDS011;39387;50.998;22.340;2023-05-29T06:37:17;1.65;;;1.30;;
53503;SDS011;39387;50.998;22.340;2023-05-29T06:39:45;1.77;;;1.10;;
53503;SDS011;39387;50.998;22.340;2023-05-29T06:42:21;1.90;;;1.17;;
53503;SDS011;39387;50.998;22.340;2023-05-29T06:44:50;1.92;;;1.10;;
53503;SDS011;39387;50.998;22.340;2023-05-29T06:47:19;1.33;;;0.90;;
53503;SDS011;39387;50.998;22.340;2023-05-29T06:49:48;1.70;;;1.00;;
53503;SDS011;39387;50.998;22.340;2023-05-29T06:52:22;1.15;;;1.05;;
53503;SDS011;39387;50.998;22.340;2023-05-29T06:54:51;0.90;;;0.70;;
53503;SDS011;39387;50.998;22.340;2023-05-29T06:57:20;1.25;;;0.90;;
53503;SDS011;39387;50.998;22.340;2023-05-29T06:59:48;1.30;;;1.05;;
53503;SDS011;39387;50.998;22.340;2023-05-29T07:02:16;2.20;;;0.95;;
53503;SDS011;39387;50.998;22.340;2023-05-29T07:04:45;2.35;;;0.85;;
53503;SDS011;39387;50.998;22.340;2023-05-29T07:07:14;1.48;;;0.80;;
53503;SDS011;39387;50.998;22.340;2023-05-29T07:09:43;1.30;;;1.00;;
53503;SDS011;39387;50.998;22.340;2023-05-29T07:12:11;1.17;;;0.70;;
53503;SDS011;39387;50.998;22.340;2023-05-29T07:14:40;1.67;;;1.20;;
53503;SDS011;39387;50.998;22.340;2023-05-29T07:17:10;0.90;;;0.77;;
53503;SDS011;39387;50.998;22.340;2023-05-29T07:19:37;1.40;;;0.80;;
53503;SDS011;39387;50.998;22.340;2023-05-29T07:22:07;1.33;;;0.80;;
53503;SDS011;39387;50.998;22.340;2023-05-29T07:24:36;0.82;;;0.77;;
53503;SDS011;39387;50.998;22.340;2023-05-29T07:27:06;1.27;;;0.80;;
53503;SDS011;39387;50.998;22.340;2023-05-29T07:29:36;1.10;;;0.80;;
53503;SDS011;39387;50.998;22.340;2023-05-29T07:32:05;0.80;;;0.70;;
53503;SDS011;39387;50.998;22.340;2023-05-29T07:34:33;0.70;;;0.70;;
53503;SDS011;39387;50.998;22.340;2023-05-29T07:37:02;2.35;;;1.00;;
53503;SDS011;39387;50.998;22.340;2023-05-29T07:39:32;1.10;;;0.80;;
53503;SDS011;39387;50.998;22.340;2023-05-29T07:42:01;0.77;;;0.77;;
53503;SDS011;39387;50.998;22.340;2023-05-29T07:44:33;1.13;;;0.82;;
53503;SDS011;39387;50.998;22.340;2023-05-29T07:49:32;1.17;;;0.80;;
53503;SDS011;39387;50.998;22.340;2023-05-29T07:52:01;1.53;;;1.00;;
53503;SDS011;39387;50.998;22.340;2023-05-29T07:54:29;1.02;;;0.95;;
53503;SDS011;39387;50.998;22.340;2023-05-29T07:56:58;1.00;;;0.90;;
53503;SDS011;39387;50.998;22.340;2023-05-29T07:59:28;1.63;;;1.10;;
53503;SDS011;39387;50.998;22.340;2023-05-29T08:01:58;2.58;;;0.82;;
53503;SDS011;39387;50.998;22.340;2023-05-29T08:04:28;0.90;;;0.80;;
53503;SDS011;39387;50.998;22.340;2023-05-29T08:06:56;0.80;;;0.80;;
53503;SDS011;39387;50.998;22.340;2023-05-29T08:09:23;1.48;;;1.10;;
53503;SDS011;39387;50.998;22.340;2023-05-29T08:11:54;1.25;;;1.08;;
53503;SDS011;39387;50.998;22.340;2023-05-29T08:14:21;2.45;;;1.00;;
53503;SDS011;39387;50.998;22.340;2023-05-29T08:16:49;1.10;;;0.90;;
53503;SDS011;39387;50.998;22.340;2023-05-29T08:19:18;1.25;;;1.10;;
53503;SDS011;39387;50.998;22.340;2023-05-29T08:21:46;1.77;;;1.10;;
53503;SDS011;39387;50.998;22.340;2023-05-29T08:24:13;1.33;;;1.00;;
53503;SDS011;39387;50.998;22.340;2023-05-29T08:26:42;0.82;;;0.70;;
53503;SDS011;39387;50.998;22.340;2023-05-29T08:29:09;0.98;;;0.88;;
53503;SDS011;39387;50.998;22.340;2023-05-29T08:31:37;1.20;;;0.70;;
53503;SDS011;39387;50.998;22.340;2023-05-29T08:34:04;0.80;;;0.80;;
53503;SDS011;39387;50.998;22.340;2023-05-29T08:36:34;1.10;;;1.00;;
53503;SDS011;39387;50.998;22.340;2023-05-29T08:39:01;0.90;;;0.90;;
53503;SDS011;39387;50.998;22.340;2023-05-29T08:41:32;1.50;;;0.90;;
53503;SDS011;39387;50.998;22.340;2023-05-29T08:44:02;1.20;;;0.98;;
53503;SDS011;39387;50.998;22.340;2023-05-29T08:46:31;1.77;;;0.90;;
53503;SDS011;39387;50.998;22.340;2023-05-29T08:48:59;1.15;;;0.90;;
53503;SDS011;39387;50.998;22.340;2023-05-29T08:51:30;1.00;;;0.88;;
53503;SDS011;39387;50.998;22.340;2023-05-29T08:54:01;1.60;;;0.90;;
53503;SDS011;39387;50.998;22.340;2023-05-29T08:56:31;1.73;;;0.90;;
53503;SDS011;39387;50.998;22.340;2023-05-29T08:58:58;1.07;;;0.80;;
53503;SDS011;39387;50.998;22.340;2023-05-29T09:01:27;1.95;;;0.90;;
53503;SDS011;39387;50.998;22.340;2023-05-29T09:03:56;1.10;;;0.90;;
53503;SDS011;39387;50.998;22.340;2023-05-29T09:06:24;1.05;;;1.00;;
53503;SDS011;39387;50.998;22.340;2023-05-29T09:08:52;1.75;;;0.90;;
53503;SDS011;39387;50.998;22.340;2023-05-29T09:11:21;1.00;;;0.90;;
53503;SDS011;39387;50.998;22.340;2023-05-29T09:13:49;1.00;;;0.90;;
53503;SDS011;39387;50.998;22.340;2023-05-29T09:16:19;2.08;;;0.80;;
53503;SDS011;39387;50.998;22.340;2023-05-29T09:18:47;1.10;;;1.00;;
53503;SDS011;39387;50.998;22.340;2023-05-29T09:21:24;1.20;;;1.00;;
53503;SDS011;39387;50.998;22.340;2023-05-29T09:23:53;1.80;;;1.13;;
53503;SDS011;39387;50.998;22.340;2023-05-29T09:26:23;1.25;;;1.00;;
53503;SDS011;39387;50.998;22.340;2023-05-29T09:31:19;1.27;;;1.10;;
53503;SDS011;39387;50.998;22.340;2023-05-29T09:33:47;1.13;;;1.00;;
53503;SDS011;39387;50.998;22.340;2023-05-29T09:36:19;1.50;;;0.93;;
53503;SDS011;39387;50.998;22.340;2023-05-29T09:38:47;0.90;;;0.90;;
53503;SDS011;39387;50.998;22.340;2023-05-29T09:41:20;1.85;;;1.00;;
53503;SDS011;39387;50.998;22.340;2023-05-29T09:43:50;1.15;;;1.00;;
53503;SDS011;39387;50.998;22.340;2023-05-29T09:48:46;1.27;;;1.10;;
53503;SDS011;39387;50.998;22.340;2023-05-29T09:51:20;1.30;;;1.20;;
53503;SDS011;39387;50.998;22.340;2023-05-29T09:53:48;1.85;;;1.35;;
53503;SDS011;39387;50.998;22.340;2023-05-29T09:56:17;1.65;;;1.50;;
53503;SDS011;39387;50.998;22.340;2023-05-29T09:58:46;1.80;;;1.33;;
53503;SDS011;39387;50.998;22.340;2023-05-29T10:01:16;2.45;;;1.50;;
53503;SDS011;39387;50.998;22.340;2023-05-29T10:03:43;1.85;;;1.08;;
53503;SDS011;39387;50.998;22.340;2023-05-29T10:06:12;2.15;;;1.50;;
53503;SDS011;39387;50.998;22.340;2023-05-29T10:08:45;1.55;;;1.20;;
53503;SDS011;39387;50.998;22.340;2023-05-29T10:11:15;2.65;;;1.55;;
53503;SDS011;39387;50.998;22.340;2023-05-29T10:16:16;1.90;;;1.23;;
53503;SDS011;39387;50.998;22.340;2023-05-29T10:18:47;1.50;;;1.20;;
53503;SDS011;39387;50.998;22.340;2023-05-29T10:21:17;1.38;;;1.02;;
53503;SDS011;39387;50.998;22.340;2023-05-29T10:23:45;1.70;;;1.33;;
53503;SDS011;39387;50.998;22.340;2023-05-29T10:26:15;4.47;;;1.23;;
53503;SDS011;39387;50.998;22.340;2023-05-29T10:28:48;2.22;;;1.27;;
53503;SDS011;39387;50.998;22.340;2023-05-29T10:31:22;1.40;;;1.30;;
53503;SDS011;39387;50.998;22.340;2023-05-29T10:33:58;1.60;;;1.40;;
53503;SDS011;39387;50.998;22.340;2023-05-29T10:36:30;1.45;;;1.10;;
53503;SDS011;39387;50.998;22.340;2023-05-29T10:39:02;1.23;;;1.10;;
53503;SDS011;39387;50.998;22.340;2023-05-29T10:41:31;2.58;;;1.67;;
53503;SDS011;39387;50.998;22.340;2023-05-29T10:47:10;2.13;;;1.63;;
53503;SDS011;39387;50.998;22.340;2023-05-29T10:49:39;1.38;;;1.23;;
53503;SDS011;39387;50.998;22.340;2023-05-29T10:52:07;2.65;;;1.33;;
53503;SDS011;39387;50.998;22.340;2023-05-29T10:54:41;1.70;;;1.40;;
53503;SDS011;39387;50.998;22.340;2023-05-29T10:57:20;2.13;;;1.35;;
53503;SDS011;39387;50.998;22.340;2023-05-29T10:59:57;1.48;;;1.30;;
53503;SDS011;39387;50.998;22.340;2023-05-29T11:02:27;1.58;;;1.30;;
53503;SDS011;39387;50.998;22.340;2023-05-29T11:05:04;1.40;;;1.30;;
53503;SDS011;39387;50.998;22.340;2023-05-29T11:07:33;1.92;;;1.20;;
53503;SDS011;39387;50.998;22.340;2023-05-29T11:10:11;1.63;;;1.38;;
53503;SDS011;39387;50.998;22.340;2023-05-29T11:12:57;1.73;;;1.50;;
53503;SDS011;39387;50.998;22.340;2023-05-29T11:15:26;1.40;;;1.30;;
53503;SDS011;39387;50.998;22.340;2023-05-29T11:17:55;1.90;;;1.70;;
53503;SDS011;39387;50.998;22.340;2023-05-29T11:20:36;2.97;;;1.63;;
53503;SDS011;39387;50.998;22.340;2023-05-29T11:23:04;1.83;;;1.27;;
53503;SDS011;39387;50.998;22.340;2023-05-29T11:25:34;2.00;;;1.50;;
53503;SDS011;39387;50.998;22.340;2023-05-29T11:28:03;1.95;;;1.50;;
53503;SDS011;39387;50.998;22.340;2023-05-29T11:30:44;1.50;;;1.25;;
53503;SDS011;39387;50.998;22.340;2023-05-29T11:33:20;1.50;;;1.40;;
53503;SDS011;39387;50.998;22.340;2023-05-29T11:35:55;2.08;;;1.60;;
53503;SDS011;39387;50.998;22.340;2023-05-29T11:38:25;1.50;;;1.40;;
53503;SDS011;39387;50.998;22.340;2023-05-29T11:40:53;1.70;;;1.50;;
53503;SDS011;39387;50.998;22.340;2023-05-29T11:43:22;1.60;;;1.50;;
53503;SDS011;39387;50.998;22.340;2023-05-29T11:45:49;2.17;;;1.40;;
53503;SDS011;39387;50.998;22.340;2023-05-29T11:48:18;1.55;;;1.45;;
53503;SDS011;39387;50.998;22.340;2023-05-29T11:53:14;2.10;;;1.27;;
53503;SDS011;39387;50.998;22.340;2023-05-29T11:55:43;2.03;;;1.30;;
53503;SDS011;39387;50.998;22.340;2023-05-29T11:58:10;1.50;;;1.40;;
53503;SDS011;39387;50.998;22.340;2023-05-29T12:00:38;1.65;;;1.50;;
53503;SDS011;39387;50.998;22.340;2023-05-29T12:03:07;1.30;;;1.10;;
53503;SDS011;39387;50.998;22.340;2023-05-29T12:05:45;1.95;;;1.13;;
53503;SDS011;39387;50.998;22.340;2023-05-29T12:08:14;1.60;;;1.50;;
53503;SDS011;39387;50.998;22.340;2023-05-29T12:10:48;2.03;;;1.30;;
53503;SDS011;39387;50.998;22.340;2023-05-29T12:13:18;1.50;;;1.35;;
53503;SDS011;39387;50.998;22.340;2023-05-29T12:15:46;2.35;;;1.40;;
53503;SDS011;39387;50.998;22.340;2023-05-29T12:18:14;1.55;;;1.42;;
53503;SDS011;39387;50.998;22.340;2023-05-29T12:20:42;2.05;;;1.40;;
53503;SDS011;39387;50.998;22.340;2023-05-29T12:23:12;1.50;;;1.40;;
53503;SDS011;39387;50.998;22.340;2023-05-29T12:25:40;1.92;;;1.45;;
53503;SDS011;39387;50.998;22.340;2023-05-29T12:28:09;2.00;;;1.65;;
53503;SDS011;39387;50.998;22.340;2023-05-29T12:30:44;2.08;;;1.60;;
53503;SDS011;39387;50.998;22.340;2023-05-29T12:33:24;1.58;;;1.48;;
53503;SDS011;39387;50.998;22.340;2023-05-29T12:36:00;1.95;;;1.60;;
53503;SDS011;39387;50.998;22.340;2023-05-29T12:38:29;1.85;;;1.48;;
53503;SDS011;39387;50.998;22.340;2023-05-29T12:40:57;1.58;;;1.40;;
53503;SDS011;39387;50.998;22.340;2023-05-29T12:43:25;1.88;;;1.65;;
53503;SDS011;39387;50.998;22.340;2023-05-29T12:45:55;2.40;;;1.65;;
53503;SDS011;39387;50.998;22.340;2023-05-29T12:48:26;1.60;;;1.50;;
53503;SDS011;39387;50.998;22.340;2023-05-29T12:50:55;3.15;;;1.63;;
53503;SDS011;39387;50.998;22.340;2023-05-29T12:53:27;2.33;;;1.63;;
53503;SDS011;39387;50.998;22.340;2023-05-29T12:55:55;1.70;;;1.60;;
53503;SDS011;39387;50.998;22.340;2023-05-29T12:58:23;2.20;;;1.58;;
53503;SDS011;39387;50.998;22.340;2023-05-29T13:00:52;2.50;;;1.50;;
53503;SDS011;39387;50.998;22.340;2023-05-29T13:03:23;2.03;;;1.83;;
53503;SDS011;39387;50.998;22.340;2023-05-29T13:05:50;1.70;;;1.55;;
53503;SDS011;39387;50.998;22.340;2023-05-29T13:08:20;1.50;;;1.38;;
53503;SDS011;39387;50.998;22.340;2023-05-29T13:10:48;1.95;;;1.70;;
53503;SDS011;39387;50.998;22.340;2023-05-29T13:13:16;1.67;;;1.48;;
53503;SDS011;39387;50.998;22.340;2023-05-29T13:15:44;1.67;;;1.20;;
53503;SDS011;39387;50.998;22.340;2023-05-29T13:18:12;1.65;;;1.30;;
53503;SDS011;39387;50.998;22.340;2023-05-29T13:20:40;1.65;;;1.35;;
53503;SDS011;39387;50.998;22.340;2023-05-29T13:23:08;2.03;;;1.50;;
53503;SDS011;39387;50.998;22.340;2023-05-29T13:25:37;2.80;;;1.40;;
53503;SDS011;39387;50.998;22.340;2023-05-29T13:28:05;2.75;;;1.40;;
53503;SDS011;39387;50.998;22.340;2023-05-29T13:30:32;1.80;;;1.38;;
53503;SDS011;39387;50.998;22.340;2023-05-29T13:33:00;2.22;;;1.38;;
53503;SDS011;39387;50.998;22.340;2023-05-29T13:35:28;1.55;;;1.45;;
53503;SDS011;39387;50.998;22.340;2023-05-29T13:37:55;1.85;;;1.50;;
53503;SDS011;39387;50.998;22.340;2023-05-29T13:40:23;1.40;;;1.30;;
53503;SDS011;39387;50.998;22.340;2023-05-29T13:42:53;1.58;;;1.35;;
53503;SDS011;39387;50.998;22.340;2023-05-29T13:45:20;1.73;;;1.50;;
53503;SDS011;39387;50.998;22.340;2023-05-29T13:47:48;1.48;;;1.20;;
53503;SDS011;39387;50.998;22.340;2023-05-29T13:50:16;1.65;;;1.45;;
53503;SDS011;39387;50.998;22.340;2023-05-29T13:52:43;1.30;;;1.13;;
53503;SDS011;39387;50.998;22.340;2023-05-29T13:55:11;3.55;;;1.60;;
53503;SDS011;39387;50.998;22.340;2023-05-29T13:57:39;2.25;;;1.50;;
53503;SDS011;39387;50.998;22.340;2023-05-29T14:00:10;2.55;;;1.63;;
53503;SDS011;39387;50.998;22.340;2023-05-29T14:02:39;2.75;;;1.52;;
53503;SDS011;39387;50.998;22.340;2023-05-29T14:05:07;1.88;;;1.40;;
53503;SDS011;39387;50.998;22.340;2023-05-29T14:10:04;1.85;;;1.60;;
53503;SDS011;39387;50.998;22.340;2023-05-29T14:12:33;1.40;;;1.30;;
53503;SDS011;39387;50.998;22.340;2023-05-29T14:15:00;1.92;;;1.55;;
53503;SDS011;39387;50.998;22.340;2023-05-29T14:17:30;1.65;;;1.40;;
53503;SDS011;39387;50.998;22.340;2023-05-29T14:19:57;1.40;;;1.30;;
53503;SDS011;39387;50.998;22.340;2023-05-29T14:22:27;1.75;;;1.50;;
53503;SDS011;39387;50.998;22.340;2023-05-29T14:24:55;2.63;;;1.70;;
53503;SDS011;39387;50.998;22.340;2023-05-29T14:27:25;2.92;;;1.20;;
53503;SDS011;39387;50.998;22.340;2023-05-29T14:29:52;1.58;;;1.30;;
53503;SDS011;39387;50.998;22.340;2023-05-29T14:32:21;1.55;;;1.30;;
53503;SDS011;39387;50.998;22.340;2023-05-29T14:34:50;1.73;;;1.45;;
53503;SDS011;39387;50.998;22.340;2023-05-29T14:37:18;1.33;;;1.23;;
53503;SDS011;39387;50.998;22.340;2023-05-29T14:39:46;1.73;;;1.40;;
53503;SDS011;39387;50.998;22.340;2023-05-29T14:42:13;1.25;;;1.15;;
53503;SDS011;39387;50.998;22.340;2023-05-29T14:44:41;1.67;;;1.00;;
53503;SDS011;39387;50.998;22.340;2023-05-29T14:47:09;1.60;;;1.40;;
53503;SDS011;39387;50.998;22.340;2023-05-29T14:49:38;1.88;;;1.10;;
53503;SDS011;39387;50.998;22.340;2023-05-29T14:52:07;1.92;;;1.25;;
53503;SDS011;39387;50.998;22.340;2023-05-29T14:54:34;1.25;;;1.13;;
53503;SDS011;39387;50.998;22.340;2023-05-29T14:57:02;1.08;;;0.98;;
53503;SDS011;39387;50.998;22.340;2023-05-29T14:59:31;2.28;;;1.05;;
53503;SDS011;39387;50.998;22.340;2023-05-29T15:01:58;1.35;;;1.20;;
53503;SDS011;39387;50.998;22.340;2023-05-29T15:04:26;1.98;;;1.50;;
53503;SDS011;39387;50.998;22.340;2023-05-29T15:06:54;1.50;;;1.30;;
53503;SDS011;39387;50.998;22.340;2023-05-29T15:09:23;2.55;;;1.58;;
53503;SDS011;39387;50.998;22.340;2023-05-29T15:11:51;2.53;;;1.40;;